Time;durP1;ratioP1;P1;durP2;ratioP2;P2;SDS_P1;SDS_P2;PMS_P1;PMS_P2;Temp;Humidity;BMP_temperature;BMP_pressure;BME280_temperature;BME280_humidity;BME280_pressure;Samples;Min_cycle;Max_cycle;Signal;HPM_P1;HPM_P2
2023/03/02 04:56:22;;;;;;;51.85;26.25;;;0.30;99.90;;;;;;5005396;23;20285;-72
2023/03/02 04:58:49;;;;;;;53.38;27.20;;;0.30;99.90;;;;;;4974236;28;20211;-71
2023/03/02 05:01:17;;;;;;;48.47;26.88;;;0.30;99.90;;;;;;4974558;28;20310;-71
2023/03/02 05:03:44;;;;;;;55.83;27.05;;;0.40;99.90;;;;;;4974533;28;20207;-72
2023/03/02 05:06:12;;;;;;;57.55;27.27;;;0.40;99.90;;;;;;4974191;28;20243;-71
2023/03/02 05:08:39;;;;;;;50.60;27.05;;;0.40;99.90;;;;;;4996745;23;20224;-70
2023/03/02 05:11:07;;;;;;;48.65;27.08;;;0.30;99.90;;;;;;4974403;28;20211;-70
2023/03/02 05:13:35;;;;;;;49.78;25.45;;;0.40;99.90;;;;;;4974447;28;20258;-68
2023/03/02 05:16:02;;;;;;;51.50;26.90;;;0.40;99.90;;;;;;4974101;28;20693;-68
2023/03/02 05:18:30;;;;;;;54.70;27.35;;;;;;;;;;4973818;28;20620;-68
2023/03/02 05:20:57;;;;;;;52.13;25.48;;;0.40;99.90;;;;;;4974635;28;20231;-71
2023/03/02 05:23:23;;;;;;;47.45;24.92;;;0.40;99.90;;;;;;4974393;28;20203;-72
2023/03/02 05:25:51;;;;;;;49.08;27.75;;;0.40;99.90;;;;;;4974204;28;20203;-72
2023/03/02 05:28:18;;;;;;;47.85;24.80;;;0.40;99.90;;;;;;4974277;28;20227;-73
2023/03/02 05:30:47;;;;;;;49.22;26.10;;;0.40;99.90;;;;;;4976113;28;20206;-73
2023/03/02 05:33:14;;;;;;;48.25;26.88;;;0.40;99.90;;;;;;4977419;28;20203;-71
2023/03/02 05:35:41;;;;;;;49.85;26.13;;;0.40;99.90;;;;;;4977597;28;20204;-72
2023/03/02 05:38:08;;;;;;;49.20;25.23;;;0.40;99.90;;;;;;4977479;28;20238;-72
2023/03/02 05:40:35;;;;;;;49.10;25.70;;;0.40;99.90;;;;;;4977379;28;20229;-71
2023/03/02 05:43:02;;;;;;;48.72;25.73;;;0.40;99.90;;;;;;4977332;28;20207;-72
2023/03/02 05:45:34;;;;;;;48.25;24.80;;;0.30;99.90;;;;;;4977401;28;20306;-71
2023/03/02 05:48:02;;;;;;;51.30;25.60;;;0.30;99.90;;;;;;4977342;28;20589;-72
2023/03/02 05:50:29;;;;;;;54.88;25.98;;;0.30;99.90;;;;;;4977271;28;20211;-71
2023/03/02 05:52:57;;;;;;;53.35;26.58;;;0.30;99.90;;;;;;4977553;28;20234;-71
2023/03/02 05:55:24;;;;;;;48.45;26.80;;;0.30;99.90;;;;;;4977284;28;20574;-70
2023/03/02 05:57:51;;;;;;;53.47;26.33;;;0.30;99.90;;;;;;4977033;28;20798;-70
2023/03/02 06:00:19;;;;;;;51.88;27.77;;;0.30;99.90;;;;;;4978102;28;20207;-72
2023/03/02 06:02:46;;;;;;;49.25;25.58;;;0.30;99.90;;;;;;4977065;28;20726;-71
2023/03/02 06:05:16;;;;;;;50.33;26.85;;;0.30;99.90;;;;;;4978463;28;20204;-67
2023/03/02 06:07:43;;;;;;;50.15;25.83;;;0.30;99.90;;;;;;4984130;28;20266;-67
2023/03/02 06:10:12;;;;;;;47.00;25.35;;;0.30;99.90;;;;;;4998660;28;20203;-67
2023/03/02 06:12:39;;;;;;;47.75;25.08;;;0.30;99.90;;;;;;4998922;28;20203;-68
2023/03/02 06:15:07;;;;;;;54.67;25.80;;;0.20;99.90;;;;;;4997790;28;20218;-68
2023/03/02 06:17:34;;;;;;;55.78;26.80;;;0.30;99.90;;;;;;4979840;28;20230;-69
2023/03/02 06:20:01;;;;;;;54.15;27.10;;;0.30;99.90;;;;;;4977793;28;20214;-67
2023/03/02 06:22:29;;;;;;;55.83;27.30;;;0.30;99.90;;;;;;4976913;28;20215;-67
2023/03/02 06:24:55;;;;;;;53.22;26.73;;;0.30;99.90;;;;;;4976795;28;20687;-67
2023/03/02 06:27:22;;;;;;;54.45;27.55;;;0.30;99.90;;;;;;4976780;28;20585;-67
2023/03/02 06:29:49;;;;;;;63.05;25.98;;;0.30;99.90;;;;;;4976895;28;20278;-67
2023/03/02 06:32:15;;;;;;;48.63;26.10;;;0.30;99.90;;;;;;4976891;28;20211;-67
2023/03/02 06:34:42;;;;;;;51.45;26.23;;;0.30;99.90;;;;;;4976637;28;20203;-67
2023/03/02 11:06:52;;;;;;;49.53;25.30;;;2.00;99.90;;;;;;5308214;23;20736;-68
2023/03/02 11:09:19;;;;;;;52.30;25.23;;;1.90;99.90;;;;;;4975639;28;20211;-68
2023/03/02 11:11:51;;;;;;;45.28;24.88;;;1.90;99.90;;;;;;4975728;28;20203;-68
2023/03/02 11:14:18;;;;;;;43.45;23.83;;;1.90;99.90;;;;;;4976013;28;20219;-68
2023/03/02 11:16:44;;;;;;;49.10;24.98;;;1.90;99.90;;;;;;4975311;28;20714;-68
2023/03/02 11:19:15;;;;;;;44.83;24.42;;;1.90;99.90;;;;;;4976249;28;20211;-66
2023/03/02 11:21:46;;;;;;;52.65;25.55;;;2.00;99.90;;;;;;4975584;28;20218;-66
2023/03/02 11:24:20;;;;;;;46.60;23.23;;;2.00;99.90;;;;;;4975572;28;20194;-66
2023/03/02 11:26:50;;;;;;;49.28;24.75;;;2.10;99.90;;;;;;4975291;28;20227;-70
2023/03/02 11:29:29;;;;;;;45.75;24.98;;;2.20;99.90;;;;;;4974714;28;20204;-70
2023/03/02 11:31:59;;;;;;;49.17;24.13;;;2.30;99.90;;;;;;4975421;28;20180;-68
2023/03/02 11:34:30;;;;;;;49.15;25.20;;;2.40;99.90;;;;;;4975524;28;20308;-69
2023/03/02 11:37:11;;;;;;;46.45;23.83;;;2.40;99.90;;;;;;4975348;28;20230;-68
2023/03/02 11:40:03;;;;;;;45.72;24.27;;;2.50;99.90;;;;;;4975390;28;20187;-68
2023/03/02 11:42:31;;;;;;;42.22;23.65;;;2.40;99.90;;;;;;4974974;28;20212;-68
2023/03/02 11:45:02;;;;;;;45.38;23.13;;;2.60;99.90;;;;;;4975302;28;20207;-68
2023/03/02 11:47:32;;;;;;;46.50;24.10;;;2.70;99.90;;;;;;4975698;28;20235;-70
2023/03/02 11:50:04;;;;;;;47.92;23.63;;;2.70;99.90;;;;;;4975243;28;20658;-71
2023/03/02 11:52:36;;;;;;;45.65;25.38;;;2.80;99.90;;;;;;4975602;28;20188;-66
2023/03/02 11:55:13;;;;;;;44.42;23.27;;;2.90;99.90;;;;;;4976266;28;20187;-68
2023/03/02 11:57:47;;;;;;;48.90;24.80;;;3.00;99.90;;;;;;4975304;28;20227;-69
2023/03/02 12:00:24;;;;;;;46.22;25.35;;;3.10;99.90;;;;;;4975262;28;20207;-69
2023/03/02 12:03:06;;;;;;;46.70;23.98;;;3.10;99.90;;;;;;4975105;28;20222;-68
2023/03/02 12:05:35;;;;;;;47.40;26.77;;;3.10;99.90;;;;;;4974884;28;20227;-67
2023/03/02 12:08:04;;;;;;;45.30;25.05;;;3.10;99.90;;;;;;4974734;28;20222;-67
2023/03/02 12:10:36;;;;;;;50.63;25.85;;;3.00;99.90;;;;;;4974814;28;20203;-66
2023/03/02 12:13:14;;;;;;;47.28;25.58;;;2.90;99.90;;;;;;4974925;28;20246;-67
2023/03/02 12:15:44;;;;;;;47.55;24.38;;;2.80;99.90;;;;;;4974978;28;20230;-68
2023/03/02 12:18:44;;;;;;;46.40;26.42;;;2.80;99.90;;;;;;4974883;28;20645;-68
2023/03/02 12:21:13;;;;;;;51.45;25.45;;;2.70;99.90;;;;;;4975143;28;20207;-68
2023/03/02 12:23:53;;;;;;;45.72;23.90;;;2.70;99.90;;;;;;4974874;28;20207;-68
2023/03/02 12:26:29;;;;;;;50.35;25.33;;;2.80;99.90;;;;;;4974665;28;20227;-68
2023/03/02 12:28:59;;;;;;;49.13;25.25;;;2.80;99.90;;;;;;4974560;28;20190;-67
2023/03/02 12:31:27;;;;;;;47.97;25.75;;;2.80;99.90;;;;;;4974625;28;20207;-67
2023/03/02 12:33:54;;;;;;;48.20;25.02;;;2.90;99.90;;;;;;4975465;28;20207;-67
2023/03/02 12:36:29;;;;;;;49.50;26.48;;;2.90;99.90;;;;;;4974534;28;20294;-67
2023/03/02 12:39:13;;;;;;;49.42;24.77;;;3.00;99.90;;;;;;4975542;28;20185;-67
2023/03/02 12:41:57;;;;;;;52.00;25.20;;;3.00;99.90;;;;;;4979248;28;20218;-67
2023/03/02 12:44:37;;;;;;;46.35;24.58;;;3.00;99.90;;;;;;4978496;28;20192;-67
2023/03/02 12:47:07;;;;;;;46.75;26.05;;;3.10;99.90;;;;;;4978366;28;20223;-68
2023/03/02 12:49:48;;;;;;;44.20;25.42;;;3.10;99.90;;;;;;4979039;28;20187;-68
2023/03/02 12:52:27;;;;;;;50.95;25.60;;;3.00;99.90;;;;;;4978454;28;20180;-68
2023/03/02 12:55:06;;;;;;;44.45;24.33;;;3.00;99.90;;;;;;4980359;28;20283;-68
2023/03/02 12:57:37;;;;;;;45.45;24.98;;;2.90;99.90;;;;;;4980175;28;20225;-69
2023/03/02 14:17:47;;;;;;;46.78;22.85;;;3.30;99.90;;;;;;5036762;23;20263;-68
2023/03/02 14:20:18;;;;;;;41.00;23.80;;;3.30;99.90;;;;;;4976433;28;20254;-68
2023/03/02 14:22:45;;;;;;;39.83;22.17;;;3.20;99.90;;;;;;4976702;28;20212;-68
2023/03/02 14:25:12;;;;;;;42.83;22.60;;;3.20;99.90;;;;;;4976694;28;20279;-68
2023/03/02 14:27:40;;;;;;;39.60;22.60;;;3.10;99.90;;;;;;4976494;28;20228;-68
2023/03/02 14:30:16;;;;;;;37.95;21.85;;;3.10;99.90;;;;;;4977023;28;20203;-68
2023/03/02 14:32:43;;;;;;;40.35;22.90;;;3.10;99.90;;;;;;4976613;28;20184;-68
2023/03/02 14:35:12;;;;;;;41.33;22.50;;;3.10;99.90;;;;;;4976524;28;20203;-69
2023/03/02 14:37:43;;;;;;;41.83;22.42;;;3.10;99.90;;;;;;4976438;28;20602;-68
2023/03/02 14:40:23;;;;;;;47.05;23.23;;;3.10;99.90;;;;;;4977229;28;20207;-68
2023/03/02 14:42:52;;;;;;;42.38;22.13;;;3.10;99.90;;;;;;4976042;28;20207;-67
2023/03/02 14:45:18;;;;;;;39.20;20.75;;;3.00;99.90;;;;;;4978841;28;20372;-67
2023/03/02 14:47:45;;;;;;;43.22;22.70;;;3.10;99.90;;;;;;4978769;28;20227;-66
2023/03/02 14:50:15;;;;;;;44.83;23.55;;;3.10;99.90;;;;;;4977716;28;20679;-66
2023/03/02 14:52:44;;;;;;;38.25;22.48;;;3.10;99.90;;;;;;4976100;28;20298;-66
2023/03/02 14:55:18;;;;;;;42.10;22.17;;;3.10;99.90;;;;;;4976074;28;20210;-66
2023/03/02 14:57:44;;;;;;;45.83;23.20;;;3.10;99.90;;;;;;4976083;28;20231;-66
2023/03/02 15:00:14;;;;;;;44.58;22.77;;;3.10;99.90;;;;;;4976003;28;20207;-66
2023/03/02 15:02:41;;;;;;;43.03;20.92;;;3.20;99.90;;;;;;4975546;28;20233;-66
2023/03/02 15:05:08;;;;;;;39.38;21.35;;;3.20;99.90;;;;;;4975852;28;20214;-66
2023/03/02 15:07:37;;;;;;;44.10;24.08;;;3.20;99.90;;;;;;4975759;28;20223;-66
2023/03/02 15:10:05;;;;;;;44.10;22.55;;;3.20;99.90;;;;;;4975803;28;20352;-66
2023/03/02 15:12:32;;;;;;;38.92;21.90;;;3.20;99.90;;;;;;4975480;28;20639;-66
2023/03/02 15:14:59;;;;;;;38.63;20.85;;;3.20;99.90;;;;;;4975727;28;20207;-66
2023/03/02 15:17:26;;;;;;;40.90;21.45;;;3.20;99.90;;;;;;4976115;28;20227;-65
2023/03/02 15:19:53;;;;;;;39.15;20.48;;;3.20;99.90;;;;;;4976488;28;20214;-66
2023/03/02 15:22:19;;;;;;;36.42;20.33;;;3.30;99.90;;;;;;4976519;28;20274;-66
2023/03/02 15:24:48;;;;;;;43.40;21.88;;;3.20;99.90;;;;;;4976541;28;20207;-66
2023/03/02 15:27:15;;;;;;;41.10;21.45;;;3.20;99.90;;;;;;4976250;28;20228;-66
2023/03/02 15:29:44;;;;;;;45.83;21.48;;;3.20;99.90;;;;;;4976994;28;20203;-68
2023/03/02 15:32:11;;;;;;;39.15;20.25;;;3.20;99.90;;;;;;4976196;28;20574;-68
2023/03/02 15:34:38;;;;;;;37.47;20.75;;;3.20;99.90;;;;;;4976526;28;20261;-68
2023/03/02 15:37:05;;;;;;;37.33;20.15;;;3.30;99.90;;;;;;4976680;28;20238;-68
2023/03/02 15:39:32;;;;;;;36.25;20.40;;;3.30;99.90;;;;;;4976221;28;20203;-68
2023/03/02 15:42:01;;;;;;;40.13;20.48;;;3.40;99.90;;;;;;4976008;28;20207;-68
2023/03/02 15:44:29;;;;;;;36.25;20.25;;;3.40;99.90;;;;;;4976964;28;20701;-68
2023/03/02 15:46:59;;;;;;;41.65;22.00;;;3.50;99.90;;;;;;4976694;28;20263;-68
2023/03/02 15:49:28;;;;;;;38.90;20.45;;;3.50;99.90;;;;;;4977055;28;20184;-68
2023/03/02 15:51:57;;;;;;;36.13;20.88;;;3.50;99.90;;;;;;4976906;28;20207;-68
2023/03/02 15:54:24;;;;;;;40.95;21.13;;;3.50;99.90;;;;;;4976358;28;20203;-68
2023/03/02 15:56:52;;;;;;;38.35;20.42;;;3.50;99.90;;;;;;4977933;28;20223;-68
2023/03/02 15:59:21;;;;;;;39.92;21.85;;;3.50;99.90;;;;;;4978070;28;20239;-69
2023/03/02 16:01:48;;;;;;;43.28;20.70;;;3.50;99.90;;;;;;4976339;28;20207;-68
2023/03/02 16:04:19;;;;;;;43.88;24.00;;;3.50;99.90;;;;;;4976695;28;20243;-68
2023/03/02 16:06:50;;;;;;;43.45;22.52;;;3.50;99.90;;;;;;4975270;28;20230;-68
2023/03/02 16:09:20;;;;;;;37.25;21.23;;;3.60;99.90;;;;;;4977330;28;20199;-68
2023/03/02 16:11:48;;;;;;;40.53;21.75;;;3.60;99.90;;;;;;4978749;28;20545;-68
2023/03/02 16:14:17;;;;;;;34.63;20.55;;;3.50;99.90;;;;;;4978027;28;20204;-68
2023/03/02 16:16:46;;;;;;;40.90;22.23;;;3.50;99.90;;;;;;4977918;28;20780;-68
2023/03/02 16:19:15;;;;;;;40.78;21.90;;;3.50;99.90;;;;;;4977006;28;20314;-67
2023/03/02 16:21:45;;;;;;;46.03;23.05;;;3.40;99.90;;;;;;4978164;28;20330;-68
2023/03/02 16:24:12;;;;;;;42.97;23.25;;;3.40;99.90;;;;;;4976002;28;20670;-69
2023/03/02 16:26:39;;;;;;;41.65;23.23;;;3.40;99.90;;;;;;4977128;28;20223;-68
2023/03/02 16:29:07;;;;;;;48.42;24.40;;;3.30;99.90;;;;;;4977153;28;20213;-69
2023/03/02 16:31:36;;;;;;;49.17;25.02;;;3.30;99.90;;;;;;4976287;28;20689;-68
2023/03/02 16:34:07;;;;;;;45.60;23.92;;;3.20;99.90;;;;;;4976009;28;20206;-69
2023/03/02 16:36:35;;;;;;;44.13;24.27;;;3.10;99.90;;;;;;4976167;28;20223;-68
2023/03/02 16:39:03;;;;;;;43.10;23.25;;;3.10;99.90;;;;;;4976168;28;20206;-69
2023/03/02 16:41:29;;;;;;;42.05;23.52;;;3.10;99.90;;;;;;4975478;28;20187;-69
2023/03/02 16:43:58;;;;;;;46.92;24.92;;;3.00;99.90;;;;;;4975315;28;20234;-69
2023/03/02 16:46:27;;;;;;;43.25;22.02;;;3.00;99.90;;;;;;4974351;28;20729;-69
2023/03/02 16:48:54;;;;;;;40.30;21.92;;;2.90;99.90;;;;;;4974895;28;20616;-68
2023/03/02 16:51:22;;;;;;;42.97;21.88;;;2.90;99.90;;;;;;4974942;28;20211;-69
2023/03/02 16:53:49;;;;;;;42.20;21.60;;;2.90;99.90;;;;;;4975359;28;20368;-68
2023/03/02 16:56:16;;;;;;;41.38;22.48;;;2.80;99.90;;;;;;4976176;28;20333;-68
2023/03/02 16:58:43;;;;;;;41.28;23.17;;;2.80;99.90;;;;;;4975360;28;20203;-68
2023/03/02 17:01:13;;;;;;;47.42;22.77;;;2.80;99.90;;;;;;4975636;28;20217;-68
2023/03/02 17:03:40;;;;;;;48.30;24.80;;;2.80;99.90;;;;;;4975343;28;20234;-68
2023/03/02 17:06:07;;;;;;;46.05;25.98;;;2.80;99.90;;;;;;4975184;28;20226;-68
2023/03/02 17:08:36;;;;;;;55.40;26.63;;;2.70;99.90;;;;;;4975579;28;20667;-68
2023/03/02 17:11:03;;;;;;;48.65;25.55;;;2.70;99.90;;;;;;4975093;28;20206;-68
2023/03/02 17:13:30;;;;;;;52.88;27.55;;;2.60;99.90;;;;;;4975496;28;20335;-68
2023/03/02 17:15:57;;;;;;;50.10;25.77;;;2.60;99.90;;;;;;4975202;28;20231;-68
2023/03/02 17:18:26;;;;;;;54.78;29.05;;;2.60;99.90;;;;;;4974483;28;20215;-68
2023/03/02 17:20:53;;;;;;;80.25;35.65;;;2.50;99.90;;;;;;4974563;28;20188;-68
2023/03/02 17:23:20;;;;;;;80.35;38.13;;;2.50;99.90;;;;;;4973996;28;20696;-68
2023/03/02 17:25:48;;;;;;;59.97;31.08;;;2.40;99.90;;;;;;4975214;28;20203;-68
2023/03/02 17:28:16;;;;;;;53.65;29.63;;;2.40;99.90;;;;;;4978144;28;20203;-70
2023/03/02 17:30:43;;;;;;;54.40;30.38;;;2.40;99.90;;;;;;4977746;28;20231;-70
2023/03/02 17:33:10;;;;;;;55.78;29.33;;;2.40;99.90;;;;;;4977892;28;20199;-70
2023/03/02 17:35:37;;;;;;;49.72;25.33;;;2.30;99.90;;;;;;4978593;28;20210;-74
2023/03/02 17:38:04;;;;;;;46.65;26.98;;;2.30;99.90;;;;;;4977716;28;20199;-71
2023/03/02 17:40:31;;;;;;;52.53;25.88;;;2.30;99.90;;;;;;4977632;28;20610;-71
2023/03/02 17:42:59;;;;;;;50.00;26.85;;;2.30;99.90;;;;;;4977291;28;20623;-70
2023/03/02 17:45:28;;;;;;;48.42;25.67;;;2.30;99.90;;;;;;4977252;28;20686;-71
2023/03/02 17:47:58;;;;;;;47.22;26.13;;;2.20;99.90;;;;;;4977429;28;20202;-70
2023/03/02 17:50:26;;;;;;;52.35;28.00;;;2.20;99.90;;;;;;4977457;28;20238;-72
2023/03/02 17:52:54;;;;;;;45.50;26.27;;;2.20;99.90;;;;;;4977052;28;20567;-71
2023/03/02 17:55:20;;;;;;;47.40;24.33;;;2.20;99.90;;;;;;4977571;28;20208;-71
2023/03/02 17:57:47;;;;;;;50.22;25.35;;;2.20;99.90;;;;;;4976960;28;20711;-71
2023/03/02 18:00:20;;;;;;;47.05;25.90;;;2.20;99.90;;;;;;4977288;28;20666;-71
2023/03/02 18:02:47;;;;;;;50.97;25.77;;;2.10;99.90;;;;;;4977283;28;20558;-71
2023/03/02 18:05:13;;;;;;;47.28;25.80;;;2.00;99.90;;;;;;4976933;28;20602;-72
2023/03/02 18:07:40;;;;;;;45.20;24.15;;;2.00;99.90;;;;;;4977484;28;20238;-72
2023/03/02 18:10:08;;;;;;;45.90;24.27;;;2.00;99.90;;;;;;4977639;28;20196;-71
2023/03/02 18:12:35;;;;;;;51.53;26.83;;;2.00;99.90;;;;;;4977137;28;20278;-71
2023/03/02 18:15:02;;;;;;;50.08;26.65;;;2.00;99.90;;;;;;4977393;28;20298;-71
2023/03/02 18:17:30;;;;;;;52.58;26.67;;;2.00;99.90;;;;;;4977149;28;20223;-71
2023/03/02 18:19:56;;;;;;;47.38;26.02;;;2.00;99.90;;;;;;4976700;28;20208;-71
2023/03/02 18:22:23;;;;;;;47.38;26.35;;;1.90;99.90;;;;;;4977329;28;20203;-72
2023/03/02 18:24:50;;;;;;;51.45;27.40;;;1.90;99.90;;;;;;4976977;28;20260;-70
2023/03/02 18:27:17;;;;;;;54.28;26.73;;;1.90;99.90;;;;;;4976756;28;20228;-72
2023/03/02 18:29:44;;;;;;;48.92;25.38;;;1.90;99.90;;;;;;4976641;28;20270;-71
2023/03/02 18:32:11;;;;;;;42.05;23.98;;;1.90;99.90;;;;;;4976866;28;20266;-72
2023/03/02 18:34:40;;;;;;;41.33;24.65;;;1.90;99.90;;;;;;4976220;28;20671;-72
2023/03/02 18:37:07;;;;;;;49.15;24.95;;;1.90;99.90;;;;;;4975617;28;20733;-71
2023/03/02 18:39:33;;;;;;;44.55;23.77;;;1.90;99.90;;;;;;4976414;28;20207;-72
2023/03/02 18:42:00;;;;;;;48.03;23.77;;;1.90;99.90;;;;;;4976142;28;20207;-72
2023/03/02 18:44:29;;;;;;;51.10;26.17;;;1.80;99.90;;;;;;4976468;28;20274;-71
2023/03/02 18:46:57;;;;;;;48.30;25.73;;;1.90;99.90;;;;;;4976541;28;20234;-72
2023/03/02 18:49:24;;;;;;;49.47;26.08;;;1.90;99.90;;;;;;4976639;28;20207;-70
2023/03/02 18:51:54;;;;;;;41.75;24.25;;;1.90;99.90;;;;;;4976465;28;20210;-71
2023/03/02 18:54:20;;;;;;;48.05;25.02;;;1.90;99.90;;;;;;4977184;28;20290;-72
2023/03/02 18:56:47;;;;;;;45.45;23.92;;;1.90;99.90;;;;;;4976332;28;20581;-71
2023/03/02 18:59:16;;;;;;;45.95;24.48;;;1.90;99.90;;;;;;4976292;28;20207;-72
2023/03/02 19:01:44;;;;;;;49.40;25.42;;;1.90;99.90;;;;;;4976096;28;20207;-70
2023/03/02 19:04:12;;;;;;;48.67;25.05;;;1.90;99.90;;;;;;4976752;28;20306;-71
2023/03/02 19:06:39;;;;;;;46.15;25.67;;;1.80;99.90;;;;;;4976087;28;20227;-72
2023/03/02 19:09:07;;;;;;;47.35;25.20;;;1.80;99.90;;;;;;4976089;28;20294;-72
2023/03/02 19:11:34;;;;;;;54.90;26.08;;;1.80;99.90;;;;;;4976366;28;20207;-72
2023/03/02 19:14:01;;;;;;;47.92;24.58;;;1.80;99.90;;;;;;4976506;28;20574;-68
2023/03/02 19:16:28;;;;;;;47.72;25.17;;;1.80;99.90;;;;;;4976319;28;20223;-68
2023/03/02 19:18:54;;;;;;;50.08;26.50;;;1.80;99.90;;;;;;4975937;28;20216;-68
2023/03/02 19:21:21;;;;;;;49.50;26.42;;;1.80;99.90;;;;;;4976124;28;20207;-69
2023/03/02 19:23:48;;;;;;;47.83;26.27;;;1.80;99.90;;;;;;4976336;28;20219;-71
2023/03/02 19:26:16;;;;;;;51.90;27.42;;;1.80;99.90;;;;;;4976206;28;20235;-70
2023/03/02 19:28:43;;;;;;;54.35;26.52;;;1.80;99.90;;;;;;4976032;28;20203;-69
2023/03/02 19:31:10;;;;;;;55.33;25.70;;;1.80;99.90;;;;;;4976215;28;20207;-70
2023/03/02 19:33:37;;;;;;;52.13;26.98;;;1.80;99.90;;;;;;4976026;28;20210;-69
2023/03/02 19:36:05;;;;;;;51.22;27.35;;;1.80;99.90;;;;;;4976058;28;20609;-69
2023/03/02 19:38:32;;;;;;;51.15;25.55;;;1.80;99.90;;;;;;4975891;28;20203;-69
2023/03/02 19:41:00;;;;;;;50.20;26.83;;;1.80;99.90;;;;;;4976211;28;20218;-69
2023/03/02 19:43:29;;;;;;;52.50;26.58;;;1.80;99.90;;;;;;4976160;28;20203;-69
2023/03/02 19:45:55;;;;;;;56.10;27.38;;;1.80;99.90;;;;;;4976067;28;20278;-69
2023/03/02 19:48:22;;;;;;;47.95;26.75;;;1.80;99.90;;;;;;4975458;28;20203;-69
2023/03/02 19:50:50;;;;;;;53.33;27.38;;;1.70;99.90;;;;;;4975697;28;20667;-69
2023/03/02 19:53:17;;;;;;;55.83;27.55;;;1.70;99.90;;;;;;4976378;28;20203;-69
2023/03/02 19:55:43;;;;;;;48.70;26.25;;;1.80;99.90;;;;;;4976063;28;20214;-69
2023/03/02 19:58:15;;;;;;;54.97;26.92;;;1.80;99.90;;;;;;4975741;28;20210;-69
2023/03/02 20:00:45;;;;;;;50.10;26.95;;;1.80;99.90;;;;;;4976692;28;20188;-69
2023/03/02 20:03:12;;;;;;;50.33;25.85;;;1.90;99.90;;;;;;4975753;28;20203;-69
2023/03/02 20:05:39;;;;;;;53.50;25.73;;;1.80;99.90;;;;;;4976112;28;20235;-68
2023/03/02 20:08:07;;;;;;;53.03;27.60;;;1.80;99.90;;;;;;4975750;28;20659;-68
2023/03/02 20:10:36;;;;;;;54.15;26.85;;;1.70;99.90;;;;;;4976665;28;20207;-68
2023/03/02 20:13:05;;;;;;;64.55;36.42;;;1.80;99.90;;;;;;4980049;28;20199;-68
2023/03/02 20:15:33;;;;;;;56.88;29.73;;;1.70;99.90;;;;;;4989410;28;20230;-68
2023/03/02 20:18:02;;;;;;;51.95;28.08;;;1.80;99.90;;;;;;4989820;28;20671;-68
2023/03/02 20:20:29;;;;;;;53.30;28.55;;;1.80;99.90;;;;;;4990225;28;20203;-68
2023/03/02 20:22:58;;;;;;;52.17;27.42;;;1.70;99.90;;;;;;4980404;28;20214;-68
2023/03/02 20:25:26;;;;;;;57.10;28.27;;;1.60;99.90;;;;;;4978957;28;20234;-69
2023/03/02 20:27:52;;;;;;;53.40;27.30;;;1.60;99.90;;;;;;4979472;28;20230;-69
2023/03/02 20:30:26;;;;;;;54.85;28.40;;;1.40;99.90;;;;;;4978434;28;20208;-70
2023/03/02 20:32:54;;;;;;;56.92;27.02;;;1.40;99.90;;;;;;4977111;28;20210;-70
2023/03/02 20:35:23;;;;;;;49.80;26.65;;;1.30;99.90;;;;;;4975274;28;20218;-70
2023/03/02 20:37:50;;;;;;;49.25;26.85;;;1.20;99.90;;;;;;4975378;28;20314;-71
2023/03/02 20:40:18;;;;;;;56.67;26.13;;;1.30;99.90;;;;;;4975182;28;20294;-71
2023/03/02 20:42:44;;;;;;;46.95;25.63;;;1.10;99.90;;;;;;4975451;28;20203;-71
2023/03/02 20:45:12;;;;;;;47.30;25.48;;;1.00;99.90;;;;;;4975138;28;20211;-71
2023/03/02 20:47:40;;;;;;;52.70;27.20;;;0.90;99.90;;;;;;4975078;28;20227;-71
2023/03/02 20:50:11;;;;;;;50.17;27.90;;;0.80;99.90;;;;;;4975341;28;20298;-71
2023/03/02 20:52:39;;;;;;;60.50;27.48;;;0.80;99.90;;;;;;4975058;28;20187;-71
2023/03/02 20:55:07;;;;;;;59.58;29.20;;;0.70;99.90;;;;;;4975728;28;20203;-70
2023/03/02 20:57:34;;;;;;;57.05;29.30;;;0.50;99.90;;;;;;4974844;28;20219;-70
2023/03/02 21:00:01;;;;;;;57.58;28.67;;;0.50;99.90;;;;;;4975928;28;20207;-70
2023/03/02 21:02:28;;;;;;;54.15;28.17;;;0.40;99.90;;;;;;4978710;28;20207;-70
2023/03/02 21:04:55;;;;;;;51.03;27.23;;;0.40;99.90;;;;;;4978635;28;20242;-70
2023/03/02 21:07:22;;;;;;;52.17;26.60;;;0.20;99.90;;;;;;4978919;28;20227;-71
2023/03/02 21:09:50;;;;;;;57.67;27.42;;;0.30;99.90;;;;;;4979478;28;20203;-71
2023/03/02 21:12:17;;;;;;;56.20;28.15;;;0.20;99.90;;;;;;4978811;28;20206;-70
2023/03/02 21:14:44;;;;;;;50.53;26.80;;;0.10;99.90;;;;;;4978688;28;20203;-70
2023/03/02 21:17:11;;;;;;;50.25;25.88;;;0.00;99.90;;;;;;4978725;28;20227;-68
2023/03/02 21:19:38;;;;;;;52.33;26.77;;;0.00;99.90;;;;;;4978619;28;20578;-70
2023/03/02 21:22:04;;;;;;;55.95;28.45;;;0.10;99.90;;;;;;4978799;28;20276;-66
2023/03/02 21:24:31;;;;;;;51.83;27.27;;;-0.10;99.90;;;;;;4978333;28;20219;-67
2023/03/02 21:27:01;;;;;;;56.03;26.33;;;-0.20;99.90;;;;;;4978437;28;20223;-68
2023/03/02 21:29:28;;;;;;;53.55;27.35;;;-0.30;99.90;;;;;;4979065;28;20207;-69
2023/03/02 21:31:55;;;;;;;67.43;30.58;;;-0.30;99.90;;;;;;4978819;28;20208;-68
2023/03/02 21:34:22;;;;;;;53.53;28.52;;;-0.30;99.90;;;;;;4978669;28;20286;-69
2023/03/02 21:36:52;;;;;;;57.40;28.80;;;;;;;;;;4978512;28;20230;-69
2023/03/02 21:39:20;;;;;;;57.25;28.50;;;-0.40;99.90;;;;;;4978857;28;20266;-69
2023/03/02 21:41:47;;;;;;;52.50;26.95;;;-0.40;99.90;;;;;;4978636;28;20199;-67
2023/03/02 21:44:16;;;;;;;57.25;28.05;;;-0.40;99.90;;;;;;4978374;28;20230;-67
2023/03/02 21:46:42;;;;;;;55.03;27.15;;;-0.50;99.90;;;;;;4978040;28;20225;-67
2023/03/02 21:49:10;;;;;;;52.00;27.60;;;-0.50;99.90;;;;;;4978497;28;20211;-66
2023/03/02 21:51:37;;;;;;;63.88;27.92;;;-0.50;99.90;;;;;;4978302;28;20268;-66
2023/03/02 21:54:04;;;;;;;58.20;29.45;;;-0.50;99.90;;;;;;4979540;28;20210;-67
2023/03/02 21:56:32;;;;;;;56.08;28.90;;;-0.50;99.90;;;;;;4979272;28;20229;-67
2023/03/02 21:58:59;;;;;;;57.58;29.63;;;-0.60;99.90;;;;;;4980912;28;20647;-69
2023/03/02 22:01:28;;;;;;;59.67;28.90;;;-0.60;99.90;;;;;;4980788;28;20303;-70
2023/03/02 22:03:56;;;;;;;58.20;30.00;;;-0.60;99.90;;;;;;4982352;28;20310;-70
2023/03/02 22:06:25;;;;;;;59.55;29.48;;;-0.60;99.90;;;;;;4980391;28;20235;-70
2023/03/02 22:08:53;;;;;;;53.03;27.95;;;-0.60;99.90;;;;;;4980282;28;20204;-70
2023/03/02 22:11:23;;;;;;;55.35;27.95;;;-0.70;99.90;;;;;;4978748;28;20259;-70
2023/03/02 22:13:52;;;;;;;58.63;29.80;;;-0.70;99.90;;;;;;4979668;28;20261;-70
2023/03/02 22:16:22;;;;;;;53.03;27.58;;;-0.60;99.90;;;;;;4980234;28;20248;-70
2023/03/02 22:18:55;;;;;;;57.00;27.55;;;-0.60;99.90;;;;;;4979009;28;20226;-70
2023/03/02 22:21:29;;;;;;;52.92;27.15;;;-0.70;99.90;;;;;;4978355;28;20660;-70
2023/03/02 22:24:02;;;;;;;50.65;26.08;;;-0.70;99.90;;;;;;4977611;28;20596;-71
2023/03/02 22:26:30;;;;;;;59.28;27.98;;;-0.70;99.90;;;;;;4976596;28;20725;-70
2023/03/02 22:29:06;;;;;;;58.25;27.50;;;-0.60;99.90;;;;;;4977390;28;20206;-70
2023/03/02 22:31:32;;;;;;;56.67;29.00;;;-0.60;99.90;;;;;;4977143;28;20191;-70
